createdAt,value
2022-08-22T00:01:48.442Z,12.98
2022-08-22T00:04:44.599Z,9.63
2022-08-22T00:07:47.188Z,12.48
2022-08-22T00:10:48.730Z,13.93
2022-08-22T00:13:43.967Z,7.28
2022-08-22T00:16:39.941Z,8.38
2022-08-22T00:19:34.891Z,9.50
2022-08-22T00:22:27.383Z,9.90
2022-08-22T00:25:36.164Z,8.20
2022-08-22T00:28:28.904Z,9.27
2022-08-22T00:31:27.115Z,13.90
2022-08-22T00:34:22.749Z,7.25
2022-08-22T00:37:19.306Z,10.98
2022-08-22T00:40:23.161Z,8.65
2022-08-22T00:43:35.205Z,10.48
2022-08-22T00:46:47.284Z,7.55
2022-08-22T00:49:58.451Z,8.65
2022-08-22T00:52:55.071Z,8.38
2022-08-22T00:55:52.752Z,10.52
2022-08-22T00:58:56.245Z,9.30
2022-08-22T01:01:55.568Z,10.32
2022-08-22T01:04:53.363Z,7.63
2022-08-22T01:08:01.305Z,10.50
2022-08-22T01:11:01.977Z,9.00
2022-08-22T01:14:04.014Z,6.72
2022-08-22T01:17:09.944Z,11.45
2022-08-22T01:20:20.425Z,7.90
2022-08-22T01:23:41.974Z,6.72
2022-08-22T01:26:41.753Z,6.43
2022-08-22T01:30:03.316Z,9.13
2022-08-22T01:33:00.582Z,10.07
2022-08-22T01:36:17.198Z,11.50
2022-08-22T01:39:09.873Z,9.57
2022-08-22T01:42:28.535Z,7.28
2022-08-22T01:45:42.241Z,9.48
2022-08-22T01:48:39.474Z,9.98
2022-08-22T01:51:33.324Z,7.50
2022-08-22T01:54:35.955Z,8.82
2022-08-22T01:57:26.488Z,6.82
2022-08-22T02:00:20.005Z,7.72
2022-08-22T02:03:29.477Z,7.53
2022-08-22T02:06:22.936Z,9.57
2022-08-22T02:09:16.027Z,6.80
2022-08-22T02:12:25.524Z,7.72
2022-08-22T02:15:23.398Z,8.07
2022-08-22T02:18:19.009Z,8.63
2022-08-22T02:21:16.932Z,6.30
2022-08-22T02:24:15.592Z,8.18
2022-08-22T02:27:11.559Z,8.75
2022-08-22T02:30:04.409Z,6.47
2022-08-22T02:33:01.301Z,7.90
2022-08-22T02:35:56.033Z,7.25
2022-08-22T02:38:55.873Z,8.02
2022-08-22T02:41:54.103Z,9.68
2022-08-22T02:44:49.132Z,8.20
2022-08-22T02:47:43.435Z,8.55
2022-08-22T02:50:44.919Z,5.80
2022-08-22T02:53:40.604Z,7.13
2022-08-22T02:56:34.736Z,12.52
2022-08-22T02:59:33.450Z,10.30
2022-08-22T03:02:33.683Z,6.97
2022-08-22T03:05:26.882Z,7.53
2022-08-22T03:11:18.996Z,9.90
2022-08-22T03:14:13.131Z,7.15
2022-08-22T03:17:07.021Z,10.88
2022-08-22T03:20:00.304Z,7.55
2022-08-22T03:22:53.613Z,7.95
2022-08-22T03:25:48.244Z,7.63
2022-08-22T03:28:58.923Z,8.75
2022-08-22T03:32:08.826Z,7.63
2022-08-22T03:34:58.316Z,8.25
2022-08-22T03:37:46.180Z,10.77
2022-08-22T03:40:47.649Z,7.30
2022-08-22T03:43:58.478Z,8.45
2022-08-22T03:47:12.024Z,7.25
2022-08-22T03:50:29.764Z,7.83
2022-08-22T03:53:41.290Z,9.73
2022-08-22T03:56:58.947Z,7.68
2022-08-22T03:59:50.094Z,11.93
2022-08-22T04:02:49.784Z,13.00
2022-08-22T04:05:56.212Z,11.73
2022-08-22T04:09:04.265Z,8.70
2022-08-22T04:12:15.740Z,11.57
2022-08-22T04:15:30.200Z,10.40
2022-08-22T04:18:33.395Z,13.93
2022-08-22T04:21:28.666Z,12.13
2022-08-22T04:24:39.997Z,7.80
2022-08-22T04:27:26.536Z,7.57
2022-08-22T04:30:23.387Z,9.82
2022-08-22T04:33:15.259Z,11.05
2022-08-22T04:36:06.417Z,9.80
2022-08-22T04:39:01.530Z,7.78
2022-08-22T04:41:53.220Z,16.42
2022-08-22T04:44:45.047Z,11.32
2022-08-22T04:47:36.447Z,10.57
2022-08-22T04:50:27.438Z,10.55
2022-08-22T04:53:40.642Z,12.73
2022-08-22T04:56:40.570Z,8.82
2022-08-22T04:59:30.314Z,9.48
2022-08-22T05:02:24.472Z,12.52
2022-08-22T05:05:16.884Z,11.45
2022-08-22T05:08:11.677Z,11.77
2022-08-22T05:11:00.725Z,12.68
2022-08-22T05:13:53.655Z,11.30
2022-08-22T05:16:43.628Z,13.07
2022-08-22T05:19:35.316Z,10.73
2022-08-22T05:22:28.945Z,11.25
2022-08-22T05:25:21.058Z,10.52
2022-08-22T05:28:12.852Z,11.05
2022-08-22T05:31:04.499Z,16.08
2022-08-22T05:33:55.066Z,11.30
2022-08-22T05:36:48.517Z,10.05
2022-08-22T05:39:39.804Z,13.30
2022-08-22T05:42:30.933Z,11.57
2022-08-22T05:45:20.651Z,10.85
2022-08-22T05:48:16.953Z,13.90
2022-08-22T05:51:15.875Z,12.45
2022-08-22T05:54:13.221Z,15.90
2022-08-22T05:57:10.443Z,13.75
2022-08-22T06:00:05.587Z,13.15
2022-08-22T06:03:10.586Z,9.30
2022-08-22T06:06:04.019Z,14.43
2022-08-22T06:08:59.242Z,13.93
2022-08-22T06:11:53.328Z,11.15
2022-08-22T06:14:46.988Z,10.43
2022-08-22T06:17:40.865Z,15.52
2022-08-22T06:20:34.220Z,12.68
2022-08-22T06:26:20.836Z,12.10
2022-08-22T06:29:11.112Z,14.18
2022-08-22T06:31:59.979Z,14.65
2022-08-22T06:34:48.422Z,12.35
2022-08-22T06:37:41.443Z,13.05
2022-08-22T06:40:32.092Z,10.73
2022-08-22T06:43:20.305Z,13.25
2022-08-22T06:46:08.566Z,15.88
2022-08-22T06:48:57.363Z,14.57
2022-08-22T06:51:49.440Z,15.13
2022-08-22T06:54:40.931Z,11.95
2022-08-22T06:57:33.805Z,13.90
2022-08-22T07:00:21.569Z,17.30
2022-08-22T07:03:14.557Z,15.15
2022-08-22T07:06:03.268Z,13.48
2022-08-22T07:08:55.865Z,15.02
2022-08-22T07:11:44.017Z,15.07
2022-08-22T07:14:39.737Z,13.48
2022-08-22T07:17:29.961Z,14.05
2022-08-22T07:20:24.684Z,12.43
2022-08-22T07:23:14.199Z,11.80
2022-08-22T07:26:15.943Z,13.18
2022-08-22T07:29:11.592Z,12.00
2022-08-22T07:32:11.833Z,9.10
2022-08-22T07:35:09.504Z,9.68
2022-08-22T07:38:04.766Z,8.82
2022-08-22T07:40:58.945Z,9.45
2022-08-22T07:43:51.392Z,9.50
2022-08-22T07:46:43.299Z,10.43
2022-08-22T07:49:36.898Z,11.15
2022-08-22T07:52:25.707Z,12.80
2022-08-22T07:55:18.953Z,9.07
2022-08-22T07:58:10.650Z,10.88
2022-08-22T08:00:59.992Z,9.57
2022-08-22T08:03:53.425Z,7.63
2022-08-22T08:06:42.837Z,7.70
2022-08-22T08:09:33.201Z,8.00
2022-08-22T08:12:34.836Z,8.57
2022-08-22T08:15:24.596Z,6.63
2022-08-22T08:18:19.241Z,6.90
2022-08-22T08:21:09.434Z,7.78
2022-08-22T08:23:59.230Z,8.02
2022-08-22T08:27:07.138Z,9.00
2022-08-22T08:29:59.097Z,6.63
2022-08-22T08:32:57.486Z,9.40
2022-08-22T08:36:10.328Z,8.65
2022-08-22T08:39:10.499Z,5.80
2022-08-22T08:42:13.416Z,6.22
2022-08-22T08:45:10.784Z,8.38
2022-08-22T08:48:16.307Z,7.63
2022-08-22T08:51:18.475Z,4.40
2022-08-22T08:54:28.293Z,7.40
2022-08-22T08:57:29.586Z,6.28
2022-08-22T09:00:23.027Z,6.68
2022-08-22T09:03:30.893Z,4.32
2022-08-22T09:06:42.543Z,7.72
2022-08-22T09:09:52.514Z,11.00
2022-08-22T09:13:11.489Z,6.03
2022-08-22T09:16:16.632Z,7.53
2022-08-22T09:19:35.814Z,7.72
2022-08-22T09:22:33.370Z,6.07
2022-08-22T09:25:38.593Z,4.93
2022-08-22T09:28:36.292Z,6.32
2022-08-22T09:31:51.967Z,5.45
2022-08-22T09:34:57.889Z,6.55
2022-08-22T09:38:04.434Z,6.30
2022-08-22T09:41:02.219Z,6.20
2022-08-22T09:43:58.718Z,7.10
2022-08-22T09:46:57.350Z,6.47
2022-08-22T09:49:53.657Z,5.03
2022-08-22T09:52:55.896Z,5.45
2022-08-22T09:55:50.150Z,4.25
2022-08-22T09:58:47.547Z,4.70
2022-08-22T10:01:42.382Z,4.80
2022-08-22T10:04:46.771Z,5.90
2022-08-22T10:10:40.792Z,4.55
2022-08-22T10:13:44.776Z,5.57
2022-08-22T10:17:01.576Z,4.85
2022-08-22T10:19:51.821Z,7.28
2022-08-22T10:22:47.441Z,3.60
2022-08-22T10:25:41.724Z,3.53
2022-08-22T10:28:41.447Z,4.90
2022-08-22T10:31:51.075Z,6.13
2022-08-22T10:34:54.862Z,5.65
2022-08-22T10:37:54.831Z,7.50
2022-08-22T10:41:00.561Z,6.57
2022-08-22T10:43:59.061Z,4.40
2022-08-22T10:46:55.374Z,5.63
2022-08-22T10:49:51.503Z,6.88
2022-08-22T10:52:46.766Z,6.43
2022-08-22T10:55:35.395Z,6.18
2022-08-22T10:58:28.038Z,7.20
2022-08-22T11:01:37.553Z,8.45
2022-08-22T11:04:42.543Z,5.47
2022-08-22T11:07:48.585Z,7.80
2022-08-22T11:10:56.370Z,3.67
2022-08-22T11:13:55.870Z,7.90
2022-08-22T11:16:57.637Z,6.47
2022-08-22T11:19:58.118Z,4.53
2022-08-22T11:23:12.305Z,4.78
2022-08-22T11:26:09.555Z,5.03
2022-08-22T11:29:14.555Z,4.45
2022-08-22T11:32:13.229Z,7.85
2022-08-22T11:35:09.481Z,4.57
2022-08-22T11:38:03.870Z,4.20
2022-08-22T11:41:01.198Z,8.52
2022-08-22T11:43:53.411Z,4.25
2022-08-22T11:46:45.420Z,6.80
2022-08-22T11:49:45.363Z,6.43
2022-08-22T11:52:52.688Z,3.50
2022-08-22T11:55:50.568Z,3.47
2022-08-22T11:58:47.765Z,5.00
2022-08-22T12:01:43.941Z,4.47
2022-08-22T12:04:37.205Z,4.35
2022-08-22T12:07:32.619Z,3.15
2022-08-22T12:10:23.078Z,6.30
2022-08-22T12:13:17.847Z,4.32
2022-08-22T12:16:13.190Z,7.53
2022-08-22T12:19:09.429Z,3.15
2022-08-22T12:22:36.249Z,4.03
2022-08-22T12:25:44.574Z,6.28
2022-08-22T12:28:39.922Z,3.40
2022-08-22T12:31:36.881Z,4.20
2022-08-22T12:34:35.322Z,3.35
2022-08-22T12:37:30.702Z,5.38
2022-08-22T12:40:36.353Z,4.05
2022-08-22T12:43:43.824Z,3.08
2022-08-22T12:46:46.678Z,3.97
2022-08-22T12:49:54.038Z,2.95
2022-08-22T12:53:00.700Z,4.55
2022-08-22T12:56:02.973Z,2.88
2022-08-22T12:59:17.728Z,4.88
2022-08-22T13:02:18.291Z,3.17
2022-08-22T13:05:19.798Z,3.67
2022-08-22T13:08:11.234Z,3.65
2022-08-22T13:11:02.784Z,4.50
2022-08-22T13:13:57.148Z,5.40
2022-08-22T13:16:51.015Z,3.20
2022-08-22T13:19:57.474Z,2.70
2022-08-22T13:22:45.893Z,3.55
2022-08-22T13:25:57.771Z,3.10
2022-08-22T13:29:04.175Z,3.15
2022-08-22T13:32:02.316Z,2.23
2022-08-22T13:34:54.338Z,2.05
2022-08-22T13:37:45.080Z,4.20
2022-08-22T13:40:39.468Z,3.80
2022-08-22T13:43:30.492Z,6.85
2022-08-22T13:46:28.229Z,1.95
2022-08-22T13:49:45.181Z,3.10
2022-08-22T13:52:38.073Z,4.30
2022-08-22T13:55:31.425Z,5.90
2022-08-22T13:58:32.963Z,5.20
2022-08-22T14:01:32.917Z,4.45
2022-08-22T14:04:31.650Z,2.10
2022-08-22T14:07:37.665Z,4.82
2022-08-22T14:10:29.688Z,4.32
2022-08-22T14:13:34.226Z,5.68
2022-08-22T14:16:29.333Z,3.97
2022-08-22T14:19:27.227Z,4.45
2022-08-22T14:22:17.369Z,3.25
2022-08-22T14:25:10.165Z,5.00
2022-08-22T14:28:06.129Z,4.30
2022-08-22T14:31:01.028Z,5.03
2022-08-22T14:33:56.270Z,2.95
2022-08-22T14:36:49.051Z,4.60
2022-08-22T14:39:42.943Z,4.95
2022-08-22T14:42:44.440Z,6.22
2022-08-22T14:45:36.077Z,7.55
2022-08-22T14:48:32.586Z,4.97
2022-08-22T14:51:25.437Z,2.80
2022-08-22T14:54:21.286Z,4.18
2022-08-22T14:57:19.962Z,4.25
2022-08-22T15:00:12.235Z,3.45
2022-08-22T15:03:17.499Z,5.45
2022-08-22T15:06:09.922Z,3.08
2022-08-22T15:09:01.157Z,3.03
2022-08-22T15:11:55.862Z,3.70
2022-08-22T15:14:52.318Z,5.38
2022-08-22T15:17:54.559Z,4.97
2022-08-22T15:20:49.146Z,3.30
2022-08-22T15:23:47.003Z,4.40
2022-08-22T15:26:40.705Z,3.30
2022-08-22T15:29:32.226Z,4.78
2022-08-22T15:32:23.427Z,5.05
2022-08-22T15:35:18.234Z,4.70
2022-08-22T15:38:08.227Z,4.22
2022-08-22T15:41:31.568Z,3.60
2022-08-22T15:44:33.569Z,3.08
2022-08-22T15:47:32.818Z,4.93
2022-08-22T15:50:33.663Z,4.28
2022-08-22T15:53:24.227Z,4.82
2022-08-22T15:56:27.277Z,4.15
2022-08-22T15:59:44.768Z,2.90
2022-08-22T16:02:40.053Z,3.55
2022-08-22T16:05:28.646Z,3.65
2022-08-22T16:08:19.417Z,3.00
2022-08-22T16:11:30.841Z,3.42
2022-08-22T16:14:24.398Z,4.15
2022-08-22T16:17:43.813Z,5.07
2022-08-22T16:20:50.969Z,6.15
2022-08-22T16:24:07.709Z,5.90
2022-08-22T16:26:54.220Z,3.13
2022-08-22T16:29:43.433Z,4.90
2022-08-22T16:32:32.422Z,3.65
2022-08-22T16:35:49.185Z,3.55
2022-08-22T16:38:36.792Z,2.45
2022-08-22T16:41:32.582Z,2.85
2022-08-22T16:44:33.813Z,2.60
2022-08-22T16:47:23.782Z,3.10
2022-08-22T16:50:33.724Z,2.17
2022-08-22T16:53:50.324Z,2.55
2022-08-22T16:56:37.086Z,3.13
2022-08-22T16:59:38.610Z,3.95
2022-08-22T17:02:44.659Z,3.63
2022-08-22T17:05:44.682Z,4.55
2022-08-22T17:08:44.639Z,2.53
2022-08-22T17:11:42.277Z,2.25
2022-08-22T17:14:41.754Z,4.13
2022-08-22T17:17:50.285Z,2.05
2022-08-22T17:20:45.904Z,2.50
2022-08-22T17:23:43.827Z,4.13
2022-08-22T17:26:46.339Z,3.45
2022-08-22T17:29:47.148Z,4.03
2022-08-22T17:32:41.967Z,3.38
2022-08-22T17:36:00.510Z,4.40
2022-08-22T17:39:04.820Z,2.35
2022-08-22T17:41:58.817Z,4.05
2022-08-22T17:44:51.589Z,6.60
2022-08-22T17:47:47.942Z,4.35
2022-08-22T17:50:43.891Z,4.78
2022-08-22T17:53:41.202Z,3.00
2022-08-22T17:56:34.307Z,4.65
2022-08-22T17:59:27.112Z,5.63
2022-08-22T18:02:22.277Z,3.05
2022-08-22T18:05:14.386Z,5.47
2022-08-22T18:08:08.891Z,3.37
2022-08-22T18:11:04.236Z,5.25
2022-08-22T18:13:58.787Z,3.72
2022-08-22T18:16:55.308Z,3.20
2022-08-22T18:19:47.025Z,2.45
2022-08-22T18:22:41.929Z,3.42
2022-08-22T18:25:38.033Z,5.45
2022-08-22T18:28:31.003Z,3.97
2022-08-22T18:31:35.218Z,3.85
2022-08-22T18:34:33.978Z,4.90
2022-08-22T18:37:57.004Z,5.80
2022-08-22T18:40:50.200Z,5.03
2022-08-22T18:43:41.494Z,3.00
2022-08-22T18:46:34.210Z,6.25
2022-08-22T18:49:41.852Z,4.43
2022-08-22T18:52:34.536Z,3.63
2022-08-22T18:55:45.001Z,6.23
2022-08-22T18:59:01.870Z,4.45
2022-08-22T19:02:05.773Z,3.85
2022-08-22T19:05:13.069Z,7.18
2022-08-22T19:08:17.614Z,5.07
2022-08-22T19:11:16.530Z,4.93
2022-08-22T19:14:21.795Z,4.45
2022-08-22T19:17:32.498Z,3.42
2022-08-22T19:20:41.101Z,4.22
2022-08-22T19:23:43.803Z,4.13
2022-08-22T19:26:34.018Z,6.03
2022-08-22T19:29:49.349Z,3.50
2022-08-22T19:32:59.482Z,3.47
2022-08-22T19:35:46.469Z,4.65
2022-08-22T19:38:55.742Z,5.32
2022-08-22T19:41:47.421Z,3.15
2022-08-22T19:44:40.675Z,5.05
2022-08-22T19:47:31.669Z,2.58
2022-08-22T19:50:31.275Z,5.95
2022-08-22T19:53:33.461Z,3.88
2022-08-22T19:56:32.724Z,5.45
2022-08-22T19:59:31.510Z,4.35
2022-08-22T20:02:31.869Z,3.25
2022-08-22T20:05:30.469Z,3.13
2022-08-22T20:08:31.183Z,7.60
2022-08-22T20:11:38.255Z,7.65
2022-08-22T20:14:30.685Z,4.00
2022-08-22T20:17:43.672Z,4.53
2022-08-22T20:20:37.531Z,3.67
2022-08-22T20:23:30.846Z,3.20
2022-08-22T20:26:18.286Z,4.30
2022-08-22T20:29:08.269Z,5.15
2022-08-22T20:31:58.740Z,6.25
2022-08-22T20:34:48.002Z,3.53
2022-08-22T20:38:05.367Z,3.65
2022-08-22T20:40:59.474Z,3.88
2022-08-22T20:43:53.077Z,4.03
2022-08-22T20:46:53.395Z,4.22
2022-08-22T20:49:47.491Z,4.95
2022-08-22T20:52:37.082Z,5.60
2022-08-22T20:55:31.942Z,4.93
2022-08-22T20:58:25.319Z,3.80
2022-08-22T21:01:15.350Z,3.85
2022-08-22T21:04:05.764Z,3.83
2022-08-22T21:07:01.001Z,3.95
2022-08-22T21:10:10.057Z,4.68
2022-08-22T21:13:03.875Z,6.05
2022-08-22T21:15:52.119Z,4.30
2022-08-22T21:18:41.129Z,9.45
2022-08-22T21:21:31.149Z,5.40
2022-08-22T21:24:18.278Z,3.90
2022-08-22T21:27:06.763Z,3.83
2022-08-22T21:29:53.763Z,6.35
2022-08-22T21:32:52.294Z,5.38
2022-08-22T21:35:42.262Z,4.80
2022-08-22T21:38:30.483Z,5.60
2022-08-22T21:41:26.991Z,3.00
2022-08-22T21:44:29.404Z,5.65
2022-08-22T21:47:30.753Z,5.00
2022-08-22T21:50:34.963Z,5.25
2022-08-22T21:53:28.943Z,6.75
2022-08-22T21:56:29.434Z,3.97
2022-08-22T21:59:50.798Z,6.50
2022-08-22T22:02:37.852Z,6.53
2022-08-22T22:05:26.750Z,6.60
2022-08-22T22:08:13.817Z,6.03
2022-08-22T22:11:03.478Z,5.78
2022-08-22T22:13:58.020Z,5.72
2022-08-22T22:16:44.817Z,4.45
2022-08-22T22:19:31.802Z,5.25
2022-08-22T22:22:19.369Z,4.03
2022-08-22T22:25:06.941Z,7.07
2022-08-22T22:28:16.878Z,6.63
2022-08-22T22:31:05.744Z,5.10
2022-08-22T22:33:52.680Z,8.35
2022-08-22T22:36:39.668Z,6.63
2022-08-22T22:39:27.183Z,4.85
2022-08-22T22:42:14.183Z,5.05
2022-08-22T22:45:01.587Z,4.80
2022-08-22T22:47:50.837Z,5.03
2022-08-22T22:50:40.970Z,6.10
2022-08-22T22:53:33.717Z,4.43
2022-08-22T22:56:28.086Z,6.43
2022-08-22T22:59:15.309Z,8.35
2022-08-22T23:02:06.764Z,6.43
2022-08-22T23:04:56.953Z,9.93
2022-08-22T23:07:43.902Z,9.18
2022-08-22T23:10:32.568Z,4.93
2022-08-22T23:13:19.676Z,5.97
2022-08-22T23:16:09.149Z,5.80
2022-08-22T23:18:56.735Z,4.90
2022-08-22T23:21:46.646Z,5.82
2022-08-22T23:24:35.576Z,7.38
2022-08-22T23:27:22.453Z,5.90
2022-08-22T23:30:10.613Z,4.93
2022-08-22T23:32:57.393Z,6.30
2022-08-22T23:35:44.523Z,8.02
2022-08-22T23:38:33.353Z,7.18
2022-08-22T23:41:22.135Z,7.63
2022-08-22T23:44:13.733Z,4.45
2022-08-22T23:47:01.305Z,5.28
2022-08-22T23:49:48.621Z,5.88
2022-08-22T23:52:35.527Z,10.05
2022-08-22T23:55:24.183Z,5.97
2022-08-22T23:58:11.070Z,5.85
